Terminal Aerodrome Forecast
Issued by NWS

Home | Current Version | Previous Version | Text Only | Print | Product List | Glossary On
Versions: 1 2 3 4 5 6 7 8 9 10 11 12 13 14 15 16 17
000
FTAK31 PAJN 240646 AAB
TAFAJN
TAF AMD
PAJN 240646Z 2407/2506 09008KT 4SM RA BR SCT005 BKN030 OVC045
      TEMPO 2407/2410 BKN005 OVC030
     FM241000 10013KT 3SM RA BR SCT003 OVC020
     FM242000 11013KT 6SM -SHRA BR OVC020
     FM250200 10008KT 6SM -SHRA BR FEW005 OVC025=

USA.gov is the U.S. government's official web portal to all federal, state and local government web resources and services.